Time;durP1;ratioP1;P1;durP2;ratioP2;P2;SDS_P1;SDS_P2;PMS_P1;PMS_P2;Temp;Humidity;BMP_temperature;BMP_pressure;BME280_temperature;BME280_humidity;BME280_pressure;Samples;Min_cycle;Max_cycle;Signal;HPM_P1;HPM_P2
2022/03/29 00:00:21;;;;;;;;;;;;;;;;;;2089628;28;20366;-43
2022/03/29 00:01:22;;;;;;;;;;;;;;;;;;2096862;28;20414;-42
2022/03/29 00:02:23;;;;;;;;;;;;;;;;;;2097664;28;19931;-43
2022/03/29 00:03:24;;;;;;;;;;;;;;;;;;2097348;28;19928;-43
2022/03/29 00:04:26;;;;;;;;;;;;;;;;;;2097723;28;20339;-43
2022/03/29 00:05:27;;;;;;;;;;;;;;;;;;2097351;28;20389;-43
2022/03/29 00:06:28;;;;;;;;;;;;;;;;;;2098080;28;19966;-47
2022/03/29 00:07:30;;;;;;;;;;;;;;;;;;2089548;28;19925;-47
2022/03/29 00:08:31;;;;;;;;;;;;;;;;;;2097641;28;19929;-48
2022/03/29 00:09:32;;;;;;;;;;;;;;;;;;2097763;28;20305;-42
2022/03/29 00:10:33;;;;;;;;;;;;;;;;;;2097496;28;20003;-43
2022/03/29 00:11:34;;;;;;;;;;;;;;;;;;2097311;28;19931;-42
2022/03/29 00:12:35;;;;;;;;;;;;;;;;;;2097439;28;20015;-43
2022/03/29 00:13:54;;;;;;;;;;;;;;;;;;2089667;28;19925;-43
2022/03/29 00:14:55;;;;;;;;;;;;;;;;;;2096647;28;19951;-42
2022/03/29 00:15:56;;;;;;;;;;;;;;;;;;2097490;28;19924;-43
2022/03/29 00:17:15;;;;;;;;;;;;;;;;;;2098162;28;19924;-47
2022/03/29 00:18:17;;;;;;;;;;;;;;;;;;2097403;28;19924;-46
2022/03/29 00:19:17;;;;;;;;;;;;;;;;;;2096827;28;19924;-49
2022/03/29 00:20:37;;;;;;;;;;;;;;;;;;2097704;28;19924;-48
2022/03/29 00:21:37;;;;;;;;;;;;;;;;;;2096618;28;20531;-48
2022/03/29 00:22:39;;;;;;;;;;;;;;;;;;2097798;28;19931;-47
2022/03/29 00:23:40;;;;;;;;;;;;;;;;;;2097640;28;19928;-47
2022/03/29 00:24:41;;;;;;;;;;;;;;;;;;2097974;28;19978;-43
2022/03/29 00:25:42;;;;;;;;;;;;;;;;;;2097447;28;19924;-43
2022/03/29 00:26:43;;;;;;;;;;;;;;;;;;2097312;28;19961;-43
2022/03/29 00:27:44;;;;;;;;;;;;;;;;;;2097943;28;19963;-43
2022/03/29 00:28:45;;;;;;;;;;;;;;;;;;2097127;28;19974;-43
2022/03/29 00:29:46;;;;;;;;;;;;;;;;;;2097583;28;19994;-43
2022/03/29 00:30:47;;;;;;;;;;;;;;;;;;2096924;28;19970;-43
2022/03/29 00:31:48;;;;;;;;;;;;;;;;;;2096788;28;19932;-43
2022/03/29 00:32:49;;;;;;;;;;;;;;;;;;2097038;28;19974;-43
2022/03/29 00:33:50;;;;;;;;;;;;;;;;;;2097769;28;19935;-43
2022/03/29 00:34:51;;;;;;;;;;;;;;;;;;2097406;28;19931;-43
2022/03/29 00:35:52;;;;;;;;;;;;;;;;;;2097369;28;19943;-42
2022/03/29 00:36:53;;;;;;;;;;;;;;;;;;2097437;28;20361;-43
2022/03/29 00:37:56;;;;;;;;;;;;;;;;;;2097114;28;19928;-43
2022/03/29 00:38:57;;;;;;;;;;;;;;;;;;2097456;28;19936;-42
2022/03/29 00:39:58;;;;;;;;;;;;;;;;;;2097346;28;19931;-43
2022/03/29 00:40:59;;;;;;;;;;;;;;;;;;2098951;28;19982;-43
2022/03/29 00:42:00;;;;;;;;;;;;;;;;;;2099909;28;20161;-43
2022/03/29 00:43:01;;;;;;;;;;;;;;;;;;2099985;28;19978;-43
2022/03/29 00:44:02;;;;;;;;;;;;;;;;;;2100161;28;19924;-43
2022/03/29 00:45:03;;;;;;;;;;;;;;;;;;2099997;28;19930;-43
2022/03/29 00:46:04;;;;;;;;;;;;;;;;;;2099949;28;19933;-43
2022/03/29 00:47:05;;;;;;;;;;;;;;;;;;2099992;28;19930;-43
2022/03/29 00:48:07;;;;;;;;;;;;;;;;;;2100074;28;20263;-43
2022/03/29 00:49:08;;;;;;;;;;;;;;;;;;2100090;28;19935;-43
2022/03/29 00:50:09;;;;;;;;;;;;;;;;;;2099709;28;19924;-42
2022/03/29 00:51:10;;;;;;;;;;;;;;;;;;2100054;28;19932;-42
2022/03/29 00:52:11;;;;;;;;;;;;;;;;;;2100300;28;20076;-43
2022/03/29 00:53:13;;;;;;;;;;;;;;;;;;2100066;28;20042;-43
2022/03/29 00:54:14;;;;;;;;;;;;;;;;;;2100028;28;19924;-43
2022/03/29 00:55:15;;;;;;;;;;;;;;;;;;2100285;28;19925;-43
2022/03/29 00:56:16;;;;;;;;;;;;;;;;;;2099958;28;19925;-42
2022/03/29 00:57:18;;;;;;;;;;;;;;;;;;2100555;28;20554;-48
2022/03/29 00:58:19;;;;;;;;;;;;;;;;;;2100071;28;19924;-47
2022/03/29 00:59:20;;;;;;;;;;;;;;;;;;2099991;28;19947;-47
2022/03/29 01:00:21;;;;;;;;;;;;;;;;;;2099905;28;19932;-48
2022/03/29 01:01:24;;;;;;;;;;;;;;;;;;2100376;28;19924;-47
2022/03/29 01:02:24;;;;;;;;;;;;;;;;;;2100082;28;19928;-47
2022/03/29 01:03:26;;;;;;;;;;;;;;;;;;2100496;28;20451;-48
2022/03/29 01:04:27;;;;;;;;;;;;;;;;;;2100203;28;20305;-43
2022/03/29 01:05:28;;;;;;;;;;;;;;;;;;2100075;28;20047;-42
2022/03/29 01:06:30;;;;;;;;;;;;;;;;;;2099223;28;20279;-43
2022/03/29 01:07:31;;;;;;;;;;;;;;;;;;2099783;28;19935;-43
2022/03/29 01:08:32;;;;;;;;;;;;;;;;;;2100320;28;20002;-46
2022/03/29 01:09:33;;;;;;;;;;;;;;;;;;2098378;28;19936;-47
2022/03/29 01:10:34;;;;;;;;;;;;;;;;;;2100354;28;19924;-47
2022/03/29 01:11:35;;;;;;;;;;;;;;;;;;2099940;28;20011;-46
2022/03/29 01:12:37;;;;;;;;;;;;;;;;;;2100097;28;19931;-47
2022/03/29 01:13:38;;;;;;;;;;;;;;;;;;2100038;28;20313;-43
2022/03/29 01:14:39;;;;;;;;;;;;;;;;;;2100231;28;20476;-43
2022/03/29 01:15:40;;;;;;;;;;;;;;;;;;2099767;28;19924;-43
2022/03/29 01:18:00;;;;;;;;;;;;;;;;;;2098491;28;20267;-43
2022/03/29 01:19:01;;;;;;;;;;;;;;;;;;2099689;28;20389;-43
2022/03/29 01:20:02;;;;;;;;;;;;;;;;;;2100244;28;19924;-43
2022/03/29 01:21:03;;;;;;;;;;;;;;;;;;2100226;28;19931;-43
2022/03/29 01:22:05;;;;;;;;;;;;;;;;;;2100467;28;19928;-47
2022/03/29 01:23:06;;;;;;;;;;;;;;;;;;2100447;28;19931;-46
2022/03/29 01:24:08;;;;;;;;;;;;;;;;;;2100437;28;19925;-48
2022/03/29 01:25:09;;;;;;;;;;;;;;;;;;2100432;28;19924;-47
2022/03/29 01:26:10;;;;;;;;;;;;;;;;;;2100333;28;19964;-47
2022/03/29 01:27:11;;;;;;;;;;;;;;;;;;2099752;28;20301;-47
2022/03/29 01:28:12;;;;;;;;;;;;;;;;;;2100108;28;19977;-47
2022/03/29 01:29:13;;;;;;;;;;;;;;;;;;2099905;28;20442;-47
2022/03/29 01:30:14;;;;;;;;;;;;;;;;;;2099914;28;19932;-43
2022/03/29 01:31:15;;;;;;;;;;;;;;;;;;2099829;28;20382;-43
2022/03/29 01:32:16;;;;;;;;;;;;;;;;;;2099496;28;19931;-43
2022/03/29 01:33:17;;;;;;;;;;;;;;;;;;2100061;28;19931;-42
2022/03/29 01:34:18;;;;;;;;;;;;;;;;;;2099719;28;20282;-47
2022/03/29 01:35:19;;;;;;;;;;;;;;;;;;2100098;28;19924;-48
2022/03/29 01:36:20;;;;;;;;;;;;;;;;;;2099564;28;19933;-43
2022/03/29 01:37:22;;;;;;;;;;;;;;;;;;2100089;28;19925;-42
2022/03/29 01:38:23;;;;;;;;;;;;;;;;;;2099993;28;19958;-43
2022/03/29 01:39:24;;;;;;;;;;;;;;;;;;2099877;28;19924;-42
2022/03/29 01:40:25;;;;;;;;;;;;;;;;;;2099863;28;19971;-43
2022/03/29 01:41:26;;;;;;;;;;;;;;;;;;2099402;28;19932;-43
2022/03/29 01:42:27;;;;;;;;;;;;;;;;;;2099842;28;20362;-43
2022/03/29 01:43:28;;;;;;;;;;;;;;;;;;2100182;28;20321;-43
2022/03/29 01:44:29;;;;;;;;;;;;;;;;;;2099612;28;19957;-42
2022/03/29 01:45:30;;;;;;;;;;;;;;;;;;2099801;28;19924;-42
2022/03/29 01:46:31;;;;;;;;;;;;;;;;;;2099705;28;19925;-42
2022/03/29 01:47:32;;;;;;;;;;;;;;;;;;2099385;28;19924;-43
2022/03/29 01:48:33;;;;;;;;;;;;;;;;;;2099808;28;19924;-43
2022/03/29 01:49:34;;;;;;;;;;;;;;;;;;2099942;28;20050;-42
2022/03/29 01:50:35;;;;;;;;;;;;;;;;;;2099388;28;19924;-43
2022/03/29 01:51:36;;;;;;;;;;;;;;;;;;2099936;28;19924;-43
2022/03/29 01:52:37;;;;;;;;;;;;;;;;;;2097444;28;20413;-42
2022/03/29 01:53:39;;;;;;;;;;;;;;;;;;2098197;28;19924;-42
2022/03/29 01:54:39;;;;;;;;;;;;;;;;;;2098658;28;19925;-42
2022/03/29 01:55:42;;;;;;;;;;;;;;;;;;2098112;28;19974;-43
2022/03/29 01:56:47;;;;;;;;;;;;;;;;;;2098553;28;19925;-43
2022/03/29 01:57:48;;;;;;;;;;;;;;;;;;2097577;28;19925;-42
2022/03/29 01:58:49;;;;;;;;;;;;;;;;;;2098260;28;19932;-42
2022/03/29 02:01:10;;;;;;;;;;;;;;;;;;2098441;28;19998;-43
2022/03/29 02:02:12;;;;;;;;;;;;;;;;;;2098537;28;19924;-42
2022/03/29 02:03:14;;;;;;;;;;;;;;;;;;2098177;28;19928;-42
2022/03/29 02:04:16;;;;;;;;;;;;;;;;;;2098521;28;19994;-45
2022/03/29 02:05:17;;;;;;;;;;;;;;;;;;2098385;28;19975;-44
2022/03/29 02:06:18;;;;;;;;;;;;;;;;;;2097867;28;20289;-44
2022/03/29 02:07:19;;;;;;;;;;;;;;;;;;2097948;28;19924;-43
2022/03/29 02:08:20;;;;;;;;;;;;;;;;;;2098677;28;19974;-43
2022/03/29 02:09:21;;;;;;;;;;;;;;;;;;2097969;28;19976;-43
2022/03/29 02:10:22;;;;;;;;;;;;;;;;;;2098403;28;19931;-43
2022/03/29 02:11:23;;;;;;;;;;;;;;;;;;2098136;28;19931;-43
2022/03/29 02:12:24;;;;;;;;;;;;;;;;;;2098260;28;20301;-44
2022/03/29 02:13:25;;;;;;;;;;;;;;;;;;2098408;28;19924;-43
2022/03/29 02:14:26;;;;;;;;;;;;;;;;;;2098438;28;19932;-44
2022/03/29 02:15:27;;;;;;;;;;;;;;;;;;2098315;28;19925;-44
2022/03/29 02:16:28;;;;;;;;;;;;;;;;;;2098495;28;19974;-42
2022/03/29 02:17:29;;;;;;;;;;;;;;;;;;2098169;28;19936;-43
2022/03/29 02:18:30;;;;;;;;;;;;;;;;;;2098224;28;19929;-42
2022/03/29 02:19:31;;;;;;;;;;;;;;;;;;2098119;28;19928;-42
2022/03/29 02:20:32;;;;;;;;;;;;;;;;;;2098390;28;20297;-43
2022/03/29 02:21:33;;;;;;;;;;;;;;;;;;2097139;28;19931;-43
2022/03/29 02:22:34;;;;;;;;;;;;;;;;;;2098339;28;19924;-42
2022/03/29 02:23:35;;;;;;;;;;;;;;;;;;2097486;28;20027;-43
2022/03/29 02:24:36;;;;;;;;;;;;;;;;;;2098225;28;19925;-42
2022/03/29 02:25:37;;;;;;;;;;;;;;;;;;2098586;28;19924;-47
2022/03/29 02:26:38;;;;;;;;;;;;;;;;;;2098361;28;19974;-46
2022/03/29 02:27:41;;;;;;;;;;;;;;;;;;2097992;28;20019;-47
2022/03/29 02:28:42;;;;;;;;;;;;;;;;;;2098218;28;19925;-49
2022/03/29 02:29:43;;;;;;;;;;;;;;;;;;2097917;28;19947;-47
2022/03/29 02:30:43;;;;;;;;;;;;;;;;;;2098033;28;19990;-48
2022/03/29 02:31:45;;;;;;;;;;;;;;;;;;2097557;28;20312;-47
2022/03/29 02:32:45;;;;;;;;;;;;;;;;;;2098257;28;20304;-47
2022/03/29 02:33:47;;;;;;;;;;;;;;;;;;2098531;28;19967;-47
2022/03/29 02:34:47;;;;;;;;;;;;;;;;;;2097646;28;19925;-47
2022/03/29 02:35:49;;;;;;;;;;;;;;;;;;2098027;28;19976;-46
2022/03/29 02:36:50;;;;;;;;;;;;;;;;;;2097475;28;19936;-48
2022/03/29 02:37:51;;;;;;;;;;;;;;;;;;2097585;28;20392;-48
2022/03/29 02:38:52;;;;;;;;;;;;;;;;;;2097900;28;20301;-47
2022/03/29 02:39:54;;;;;;;;;;;;;;;;;;2098315;28;19928;-47
2022/03/29 02:40:58;;;;;;;;;;;;;;;;;;2098162;28;19935;-47
2022/03/29 02:41:59;;;;;;;;;;;;;;;;;;2097725;28;19933;-46
2022/03/29 02:43:00;;;;;;;;;;;;;;;;;;2098534;28;19951;-43
2022/03/29 02:44:02;;;;;;;;;;;;;;;;;;2097897;28;20019;-44
2022/03/29 02:45:03;;;;;;;;;;;;;;;;;;2098615;28;20405;-42
2022/03/29 02:46:04;;;;;;;;;;;;;;;;;;2098071;28;19932;-42
2022/03/29 02:47:05;;;;;;;;;;;;;;;;;;2097677;28;19924;-42
2022/03/29 02:48:07;;;;;;;;;;;;;;;;;;2098230;28;19931;-43
2022/03/29 02:49:08;;;;;;;;;;;;;;;;;;2098086;28;19931;-43
2022/03/29 02:50:09;;;;;;;;;;;;;;;;;;2098029;28;19990;-46
2022/03/29 02:51:10;;;;;;;;;;;;;;;;;;2097088;28;19928;-47
2022/03/29 02:52:11;;;;;;;;;;;;;;;;;;2097890;28;19928;-47
2022/03/29 02:53:14;;;;;;;;;;;;;;;;;;2098226;28;19932;-48
2022/03/29 02:54:16;;;;;;;;;;;;;;;;;;2098221;28;19931;-47
2022/03/29 02:55:18;;;;;;;;;;;;;;;;;;2098103;28;19925;-47
2022/03/29 02:56:19;;;;;;;;;;;;;;;;;;2098192;28;20316;-48
2022/03/29 02:57:20;;;;;;;;;;;;;;;;;;2097102;28;19925;-47
2022/03/29 02:58:22;;;;;;;;;;;;;;;;;;2098468;28;19929;-47
2022/03/29 02:59:23;;;;;;;;;;;;;;;;;;2098335;28;20274;-47
2022/03/29 03:00:24;;;;;;;;;;;;;;;;;;2097863;28;19935;-46
2022/03/29 03:01:28;;;;;;;;;;;;;;;;;;2097825;28;19928;-47
2022/03/29 03:02:30;;;;;;;;;;;;;;;;;;2098096;28;19924;-47
2022/03/29 03:03:31;;;;;;;;;;;;;;;;;;2097988;28;19925;-47
2022/03/29 03:04:33;;;;;;;;;;;;;;;;;;2097398;28;19947;-48
2022/03/29 03:05:34;;;;;;;;;;;;;;;;;;2097962;28;19929;-49
2022/03/29 03:06:35;;;;;;;;;;;;;;;;;;2097763;28;20370;-48
2022/03/29 03:07:36;;;;;;;;;;;;;;;;;;2097789;28;19925;-47
2022/03/29 03:08:37;;;;;;;;;;;;;;;;;;2098082;28;19929;-47
2022/03/29 03:09:38;;;;;;;;;;;;;;;;;;2097898;28;20435;-47
2022/03/29 03:10:40;;;;;;;;;;;;;;;;;;2097718;28;19928;-47
2022/03/29 03:11:41;;;;;;;;;;;;;;;;;;2096326;28;19929;-42
2022/03/29 03:12:42;;;;;;;;;;;;;;;;;;2098466;28;19936;-43
2022/03/29 03:13:43;;;;;;;;;;;;;;;;;;2098047;28;19924;-43
2022/03/29 03:14:44;;;;;;;;;;;;;;;;;;2098077;28;20404;-43
2022/03/29 03:15:45;;;;;;;;;;;;;;;;;;2098074;28;19925;-42
2022/03/29 03:16:46;;;;;;;;;;;;;;;;;;2097635;28;19924;-43
2022/03/29 03:18:09;;;;;;;;;;;;;;;;;;2097987;28;19980;-42
2022/03/29 03:19:10;;;;;;;;;;;;;;;;;;2097307;28;19993;-43
2022/03/29 03:20:15;;;;;;;;;;;;;;;;;;2098096;28;19950;-44
2022/03/29 03:21:16;;;;;;;;;;;;;;;;;;2097386;28;19924;-43
2022/03/29 03:22:17;;;;;;;;;;;;;;;;;;2098004;28;19924;-43
2022/03/29 03:23:18;;;;;;;;;;;;;;;;;;2098347;28;19931;-43
2022/03/29 03:24:19;;;;;;;;;;;;;;;;;;2097884;28;19925;-42
2022/03/29 03:25:20;;;;;;;;;;;;;;;;;;2098029;28;19925;-43
2022/03/29 03:26:21;;;;;;;;;;;;;;;;;;2097432;28;19951;-43
2022/03/29 03:27:22;;;;;;;;;;;;;;;;;;2097824;28;20331;-43
2022/03/29 03:28:23;;;;;;;;;;;;;;;;;;2098082;28;19981;-43
2022/03/29 03:29:24;;;;;;;;;;;;;;;;;;2098361;28;19986;-43
2022/03/29 03:30:25;;;;;;;;;;;;;;;;;;2098182;28;19929;-43
2022/03/29 03:31:26;;;;;;;;;;;;;;;;;;2098187;28;19932;-43
2022/03/29 03:32:28;;;;;;;;;;;;;;;;;;2097954;28;19932;-43
2022/03/29 03:33:29;;;;;;;;;;;;;;;;;;2098142;28;19924;-43
2022/03/29 03:34:30;;;;;;;;;;;;;;;;;;2098202;28;19931;-43
2022/03/29 03:35:31;;;;;;;;;;;;;;;;;;2097777;28;20275;-43
2022/03/29 03:36:33;;;;;;;;;;;;;;;;;;2098221;28;19931;-47
2022/03/29 03:37:34;;;;;;;;;;;;;;;;;;2097399;28;19939;-47
2022/03/29 03:38:35;;;;;;;;;;;;;;;;;;2098202;28;19924;-43
2022/03/29 03:39:37;;;;;;;;;;;;;;;;;;2097474;28;20386;-43
2022/03/29 03:40:38;;;;;;;;;;;;;;;;;;2096631;28;19928;-42
2022/03/29 03:41:40;;;;;;;;;;;;;;;;;;2097449;28;20329;-43
2022/03/29 03:42:41;;;;;;;;;;;;;;;;;;2097110;28;19936;-42
2022/03/29 03:43:42;;;;;;;;;;;;;;;;;;2097389;28;19931;-43
2022/03/29 03:44:44;;;;;;;;;;;;;;;;;;2097153;28;19924;-43
2022/03/29 03:45:44;;;;;;;;;;;;;;;;;;2098208;28;19960;-43
2022/03/29 03:46:46;;;;;;;;;;;;;;;;;;2097104;28;20381;-43
2022/03/29 03:47:47;;;;;;;;;;;;;;;;;;2097461;28;19924;-43
2022/03/29 03:48:48;;;;;;;;;;;;;;;;;;2097684;28;19986;-42
2022/03/29 03:49:49;;;;;;;;;;;;;;;;;;2097157;28;20019;-43
2022/03/29 03:50:50;;;;;;;;;;;;;;;;;;2097115;28;19924;-42
2022/03/29 03:51:51;;;;;;;;;;;;;;;;;;2093994;28;20030;-43
2022/03/29 03:52:53;;;;;;;;;;;;;;;;;;2097414;28;19975;-43
2022/03/29 03:53:54;;;;;;;;;;;;;;;;;;2097954;28;19932;-43
2022/03/29 03:54:56;;;;;;;;;;;;;;;;;;2097067;28;19935;-42
2022/03/29 03:55:56;;;;;;;;;;;;;;;;;;2096749;28;19924;-41
2022/03/29 03:56:58;;;;;;;;;;;;;;;;;;2098050;28;20003;-42
2022/03/29 03:57:58;;;;;;;;;;;;;;;;;;2098279;28;19932;-47
2022/03/29 03:59:00;;;;;;;;;;;;;;;;;;2098161;28;20301;-47
2022/03/29 04:00:01;;;;;;;;;;;;;;;;;;2097551;28;19928;-47
2022/03/29 04:01:03;;;;;;;;;;;;;;;;;;2095750;28;19929;-43
2022/03/29 04:02:04;;;;;;;;;;;;;;;;;;2097848;28;19928;-43
2022/03/29 04:03:05;;;;;;;;;;;;;;;;;;2098369;28;20293;-47
2022/03/29 04:04:06;;;;;;;;;;;;;;;;;;2098092;28;19924;-42
2022/03/29 04:05:08;;;;;;;;;;;;;;;;;;2097885;28;19924;-42
2022/03/29 04:06:09;;;;;;;;;;;;;;;;;;2097876;28;19924;-47
2022/03/29 04:07:10;;;;;;;;;;;;;;;;;;2097206;28;19932;-48
2022/03/29 04:08:11;;;;;;;;;;;;;;;;;;2098363;28;19929;-48
2022/03/29 04:09:12;;;;;;;;;;;;;;;;;;2097346;28;19929;-47
2022/03/29 04:10:14;;;;;;;;;;;;;;;;;;2098184;28;19993;-43
2022/03/29 04:11:15;;;;;;;;;;;;;;;;;;2097643;28;19924;-43
2022/03/29 04:12:16;;;;;;;;;;;;;;;;;;2097992;28;20378;-48
2022/03/29 04:13:17;;;;;;;;;;;;;;;;;;2097765;28;20336;-48
2022/03/29 04:14:18;;;;;;;;;;;;;;;;;;2097844;28;19925;-47
2022/03/29 04:15:19;;;;;;;;;;;;;;;;;;2097340;28;19932;-47
2022/03/29 04:16:20;;;;;;;;;;;;;;;;;;2097575;28;19924;-49
2022/03/29 04:17:22;;;;;;;;;;;;;;;;;;2097745;28;20347;-48
2022/03/29 04:18:22;;;;;;;;;;;;;;;;;;2098230;28;20294;-48
2022/03/29 04:19:24;;;;;;;;;;;;;;;;;;2098061;28;19931;-47
2022/03/29 04:20:25;;;;;;;;;;;;;;;;;;2098009;28;19928;-47
2022/03/29 04:22:46;;;;;;;;;;;;;;;;;;2097850;28;19932;-43
2022/03/29 04:23:47;;;;;;;;;;;;;;;;;;2098202;28;19929;-49
2022/03/29 04:24:48;;;;;;;;;;;;;;;;;;2098055;28;19925;-48
2022/03/29 04:25:49;;;;;;;;;;;;;;;;;;2097854;28;20001;-48
2022/03/29 04:26:51;;;;;;;;;;;;;;;;;;2098009;28;19981;-49
2022/03/29 04:27:52;;;;;;;;;;;;;;;;;;2098096;28;19924;-49
2022/03/29 04:28:53;;;;;;;;;;;;;;;;;;2097816;28;20015;-48
2022/03/29 04:29:54;;;;;;;;;;;;;;;;;;2097757;28;20437;-47
2022/03/29 04:30:55;;;;;;;;;;;;;;;;;;2098066;28;19933;-44
2022/03/29 04:31:57;;;;;;;;;;;;;;;;;;2098103;28;20024;-43
2022/03/29 04:32:58;;;;;;;;;;;;;;;;;;2097783;28;19963;-47
2022/03/29 04:33:59;;;;;;;;;;;;;;;;;;2097786;28;20023;-47
2022/03/29 04:35:00;;;;;;;;;;;;;;;;;;2097766;28;19924;-48
2022/03/29 04:36:02;;;;;;;;;;;;;;;;;;2097953;28;20023;-42
2022/03/29 04:37:03;;;;;;;;;;;;;;;;;;2097616;28;19928;-43
2022/03/29 04:38:04;;;;;;;;;;;;;;;;;;2097751;28;19924;-42
2022/03/29 04:39:05;;;;;;;;;;;;;;;;;;2097623;28;19924;-41
2022/03/29 04:40:08;;;;;;;;;;;;;;;;;;2096921;28;20381;-42
2022/03/29 04:41:10;;;;;;;;;;;;;;;;;;2096323;28;20271;-42
2022/03/29 04:42:11;;;;;;;;;;;;;;;;;;2091483;28;20417;-42
2022/03/29 04:43:12;;;;;;;;;;;;;;;;;;2089439;28;20336;-42
2022/03/29 04:44:13;;;;;;;;;;;;;;;;;;2094994;28;19928;-42
2022/03/29 04:45:14;;;;;;;;;;;;;;;;;;2097558;28;19950;-42
2022/03/29 04:46:15;;;;;;;;;;;;;;;;;;2097747;28;20275;-42
2022/03/29 04:47:16;;;;;;;;;;;;;;;;;;2097382;28;19932;-42
2022/03/29 04:48:17;;;;;;;;;;;;;;;;;;2097442;28;20019;-42
2022/03/29 04:49:18;;;;;;;;;;;;;;;;;;2097840;28;19928;-42
2022/03/29 04:50:19;;;;;;;;;;;;;;;;;;2098001;28;19924;-49
2022/03/29 04:51:20;;;;;;;;;;;;;;;;;;2097405;28;19967;-47
2022/03/29 04:52:21;;;;;;;;;;;;;;;;;;2097549;28;20297;-47
2022/03/29 04:53:22;;;;;;;;;;;;;;;;;;2097713;28;19928;-47
2022/03/29 04:54:23;;;;;;;;;;;;;;;;;;2098171;28;19925;-42
2022/03/29 04:55:24;;;;;;;;;;;;;;;;;;2097642;28;19955;-43
2022/03/29 04:56:25;;;;;;;;;;;;;;;;;;2097161;28;19925;-46
2022/03/29 04:57:26;;;;;;;;;;;;;;;;;;2097582;28;20370;-47
2022/03/29 04:58:27;;;;;;;;;;;;;;;;;;2097509;28;19973;-47
2022/03/29 04:59:28;;;;;;;;;;;;;;;;;;2097621;28;20378;-46
2022/03/29 05:00:29;;;;;;;;;;;;;;;;;;2097744;28;19924;-47
2022/03/29 05:01:30;;;;;;;;;;;;;;;;;;2097779;28;19929;-46
2022/03/29 05:02:32;;;;;;;;;;;;;;;;;;2097781;28;19936;-47
2022/03/29 05:03:33;;;;;;;;;;;;;;;;;;2097574;28;19935;-47
2022/03/29 05:04:34;;;;;;;;;;;;;;;;;;2097730;28;19931;-47
2022/03/29 05:05:35;;;;;;;;;;;;;;;;;;2097898;28;20281;-43
2022/03/29 05:06:36;;;;;;;;;;;;;;;;;;2097899;28;20290;-43
2022/03/29 05:07:37;;;;;;;;;;;;;;;;;;2098275;28;19939;-43
2022/03/29 05:08:39;;;;;;;;;;;;;;;;;;2097638;28;20278;-48
2022/03/29 05:09:41;;;;;;;;;;;;;;;;;;2097745;28;19924;-42
2022/03/29 05:10:42;;;;;;;;;;;;;;;;;;2097329;28;20369;-43
2022/03/29 05:11:43;;;;;;;;;;;;;;;;;;2097561;28;19925;-43
2022/03/29 05:12:44;;;;;;;;;;;;;;;;;;2097299;28;20381;-43
2022/03/29 05:13:45;;;;;;;;;;;;;;;;;;2097964;28;19932;-47
2022/03/29 05:14:46;;;;;;;;;;;;;;;;;;2097706;28;19925;-47
2022/03/29 05:15:48;;;;;;;;;;;;;;;;;;2097739;28;19932;-47
2022/03/29 05:16:49;;;;;;;;;;;;;;;;;;2097619;28;19964;-47
2022/03/29 05:17:50;;;;;;;;;;;;;;;;;;2097807;28;20267;-42
2022/03/29 05:18:51;;;;;;;;;;;;;;;;;;2097716;28;19925;-47
2022/03/29 05:19:52;;;;;;;;;;;;;;;;;;2098084;28;19928;-42
2022/03/29 05:20:53;;;;;;;;;;;;;;;;;;2097180;28;20335;-49
2022/03/29 05:21:55;;;;;;;;;;;;;;;;;;2097868;28;19983;-43
2022/03/29 05:22:58;;;;;;;;;;;;;;;;;;2096156;28;19928;-47
2022/03/29 05:23:59;;;;;;;;;;;;;;;;;;2096766;28;19925;-43
2022/03/29 05:25:00;;;;;;;;;;;;;;;;;;2097096;28;20370;-42
2022/03/29 05:26:02;;;;;;;;;;;;;;;;;;2096654;28;20062;-42
2022/03/29 05:27:03;;;;;;;;;;;;;;;;;;2096798;28;20015;-48
2022/03/29 05:28:04;;;;;;;;;;;;;;;;;;2098148;28;19932;-47
2022/03/29 05:29:06;;;;;;;;;;;;;;;;;;2098701;28;19931;-48
2022/03/29 05:30:07;;;;;;;;;;;;;;;;;;2098638;28;19924;-48
2022/03/29 05:31:08;;;;;;;;;;;;;;;;;;2098201;28;20008;-47
2022/03/29 05:32:10;;;;;;;;;;;;;;;;;;2098551;28;20011;-49
2022/03/29 05:33:15;;;;;;;;;;;;;;;;;;2099046;28;19928;-48
2022/03/29 05:34:16;;;;;;;;;;;;;;;;;;2098948;28;19931;-42
2022/03/29 05:35:17;;;;;;;;;;;;;;;;;;2098731;28;19925;-42
2022/03/29 05:36:18;;;;;;;;;;;;;;;;;;2097985;28;19932;-42
2022/03/29 05:37:19;;;;;;;;;;;;;;;;;;2098689;28;20018;-47
2022/03/29 05:38:21;;;;;;;;;;;;;;;;;;2098907;28;19944;-46
2022/03/29 05:39:23;;;;;;;;;;;;;;;;;;2098360;28;20003;-41
2022/03/29 05:40:24;;;;;;;;;;;;;;;;;;2097497;28;20283;-48
2022/03/29 05:41:25;;;;;;;;;;;;;;;;;;2098143;28;20370;-48
2022/03/29 05:42:27;;;;;;;;;;;;;;;;;;2098997;28;19924;-43
2022/03/29 05:43:28;;;;;;;;;;;;;;;;;;2098627;28;20064;-42
2022/03/29 05:44:29;;;;;;;;;;;;;;;;;;2098157;28;20389;-42
2022/03/29 05:45:30;;;;;;;;;;;;;;;;;;2098568;28;20366;-42
2022/03/29 05:49:11;;;;;;;;;;;;;;;;;;2098242;28;19925;-42
2022/03/29 05:50:12;;;;;;;;;;;;;;;;;;2098789;28;19924;-42
2022/03/29 05:51:13;;;;;;;;;;;;;;;;;;2097915;28;20316;-42
2022/03/29 05:52:15;;;;;;;;;;;;;;;;;;2098473;28;19925;-42
2022/03/29 05:53:15;;;;;;;;;;;;;;;;;;2098193;28;19963;-41
2022/03/29 05:54:17;;;;;;;;;;;;;;;;;;2098274;28;19971;-41
2022/03/29 05:55:18;;;;;;;;;;;;;;;;;;2097285;28;19985;-47
2022/03/29 05:56:19;;;;;;;;;;;;;;;;;;2098382;28;19924;-47
2022/03/29 05:57:20;;;;;;;;;;;;;;;;;;2098770;28;19978;-47
2022/03/29 05:58:22;;;;;;;;;;;;;;;;;;2098711;28;19929;-47
2022/03/29 05:59:23;;;;;;;;;;;;;;;;;;2099005;28;19932;-48
2022/03/29 06:00:25;;;;;;;;;;;;;;;;;;2098831;28;19947;-47
2022/03/29 06:01:26;;;;;;;;;;;;;;;;;;2098872;28;19924;-47
2022/03/29 06:02:27;;;;;;;;;;;;;;;;;;2098924;28;19925;-47
2022/03/29 06:03:29;;;;;;;;;;;;;;;;;;2099002;28;20404;-47
2022/03/29 06:04:29;;;;;;;;;;;;;;;;;;2098897;28;19924;-46
2022/03/29 06:05:32;;;;;;;;;;;;;;;;;;2098711;28;20327;-48
2022/03/29 06:06:33;;;;;;;;;;;;;;;;;;2098618;28;20019;-46
2022/03/29 06:07:34;;;;;;;;;;;;;;;;;;2098626;28;20392;-47
2022/03/29 06:08:35;;;;;;;;;;;;;;;;;;2098697;28;20306;-48
2022/03/29 06:09:36;;;;;;;;;;;;;;;;;;2099012;28;19932;-47
2022/03/29 06:10:38;;;;;;;;;;;;;;;;;;2098601;28;20046;-46
2022/03/29 06:11:39;;;;;;;;;;;;;;;;;;2098736;28;19925;-47
2022/03/29 06:12:40;;;;;;;;;;;;;;;;;;2098691;28;19979;-48
2022/03/29 06:13:41;;;;;;;;;;;;;;;;;;2098817;28;20011;-47
2022/03/29 06:14:42;;;;;;;;;;;;;;;;;;2098830;28;19931;-47
2022/03/29 06:15:43;;;;;;;;;;;;;;;;;;2098595;28;20293;-47
2022/03/29 06:16:44;;;;;;;;;;;;;;;;;;2098479;28;20374;-48
2022/03/29 06:17:45;;;;;;;;;;;;;;;;;;2098789;28;19939;-47
2022/03/29 06:18:46;;;;;;;;;;;;;;;;;;2098830;28;19925;-42
2022/03/29 06:19:48;;;;;;;;;;;;;;;;;;2098715;28;19963;-47
2022/03/29 06:20:48;;;;;;;;;;;;;;;;;;2098729;28;19932;-48
2022/03/29 06:21:50;;;;;;;;;;;;;;;;;;2098721;28;19924;-43
2022/03/29 06:22:51;;;;;;;;;;;;;;;;;;2098582;28;19956;-42
2022/03/29 06:23:52;;;;;;;;;;;;;;;;;;2098554;28;19925;-43
2022/03/29 06:24:53;;;;;;;;;;;;;;;;;;2098581;28;19948;-43
2022/03/29 06:25:55;;;;;;;;;;;;;;;;;;2098488;28;19950;-43
2022/03/29 06:26:55;;;;;;;;;;;;;;;;;;2098564;28;19935;-42
2022/03/29 06:27:57;;;;;;;;;;;;;;;;;;2098706;28;19925;-43
2022/03/29 06:28:58;;;;;;;;;;;;;;;;;;2098463;28;19928;-43
2022/03/29 06:29:59;;;;;;;;;;;;;;;;;;2098780;28;19932;-47
2022/03/29 06:31:00;;;;;;;;;;;;;;;;;;2098715;28;20430;-42
2022/03/29 06:32:01;;;;;;;;;;;;;;;;;;2098534;28;19934;-42
2022/03/29 06:33:02;;;;;;;;;;;;;;;;;;2090758;28;19967;-43
2022/03/29 06:34:03;;;;;;;;;;;;;;;;;;2090423;28;19929;-47
2022/03/29 06:35:05;;;;;;;;;;;;;;;;;;2090269;28;20592;-47
2022/03/29 06:36:05;;;;;;;;;;;;;;;;;;2090451;28;20393;-48
2022/03/29 06:37:08;;;;;;;;;;;;;;;;;;2098798;28;19924;-43
2022/03/29 06:38:09;;;;;;;;;;;;;;;;;;2098494;28;19932;-43
2022/03/29 06:39:12;;;;;;;;;;;;;;;;;;2098103;28;20277;-43
2022/03/29 06:40:12;;;;;;;;;;;;;;;;;;2098371;28;20504;-43
2022/03/29 06:41:14;;;;;;;;;;;;;;;;;;2098889;28;19969;-43
2022/03/29 06:42:18;;;;;;;;;;;;;;;;;;2098643;28;20357;-46
2022/03/29 06:43:19;;;;;;;;;;;;;;;;;;2098601;28;20020;-43
2022/03/29 06:44:20;;;;;;;;;;;;;;;;;;2098443;28;19924;-43
2022/03/29 06:45:22;;;;;;;;;;;;;;;;;;2100273;28;19935;-43
2022/03/29 06:46:24;;;;;;;;;;;;;;;;;;2097712;28;19932;-42
2022/03/29 06:47:25;;;;;;;;;;;;;;;;;;2100867;28;20019;-43
2022/03/29 06:48:31;;;;;;;;;;;;;;;;;;2102726;28;19978;-43
2022/03/29 06:49:32;;;;;;;;;;;;;;;;;;2100135;28;19947;-47
2022/03/29 06:50:35;;;;;;;;;;;;;;;;;;2101837;28;20302;-48
2022/03/29 06:51:36;;;;;;;;;;;;;;;;;;2101454;28;20408;-48
2022/03/29 06:52:38;;;;;;;;;;;;;;;;;;2101635;28;20286;-50
2022/03/29 06:53:39;;;;;;;;;;;;;;;;;;2102804;28;20007;-43
2022/03/29 06:54:41;;;;;;;;;;;;;;;;;;2101067;28;19967;-43
2022/03/29 06:55:42;;;;;;;;;;;;;;;;;;2100468;28;19978;-43
2022/03/29 06:56:44;;;;;;;;;;;;;;;;;;2103153;28;21119;-43
2022/03/29 06:57:45;;;;;;;;;;;;;;;;;;2100924;28;19959;-47
2022/03/29 06:58:47;;;;;;;;;;;;;;;;;;2103325;28;19952;-48
2022/03/29 06:59:49;;;;;;;;;;;;;;;;;;2101099;28;19985;-47
2022/03/29 07:00:51;;;;;;;;;;;;;;;;;;2102721;28;20029;-43
2022/03/29 07:01:52;;;;;;;;;;;;;;;;;;2101465;28;19928;-43
2022/03/29 07:02:54;;;;;;;;;;;;;;;;;;2102077;28;19950;-43
2022/03/29 07:03:59;;;;;;;;;;;;;;;;;;2102377;28;20011;-43
2022/03/29 07:05:01;;;;;;;;;;;;;;;;;;2101697;28;19924;-43
2022/03/29 07:06:04;;;;;;;;;;;;;;;;;;2100594;28;19967;-44